Time;durP1;ratioP1;P1;durP2;ratioP2;P2;SDS_P1;SDS_P2;PMS_P1;PMS_P2;Temp;Humidity;BMP_temperature;BMP_pressure;BME280_temperature;BME280_humidity;BME280_pressure;Samples;Min_cycle;Max_cycle;Signal;HPM_P1;HPM_P2
2022/06/12 00:02:00;;;;;;;7.22;4.82;;;;;;;14.96;59.08;99029.31;5110415;28;20051;-73
2022/06/12 00:04:26;;;;;;;6.85;4.53;;;;;;;14.92;59.22;99024.69;5104784;28;20019;-73
2022/06/12 00:06:52;;;;;;;7.03;4.72;;;;;;;14.92;59.23;99025.53;5110571;27;20035;-74
2022/06/12 00:09:18;;;;;;;7.93;4.55;;;;;;;14.92;59.30;99027.47;5110840;28;20031;-74
2022/06/12 00:11:44;;;;;;;5.82;4.50;;;;;;;14.90;59.27;99027.78;5090301;28;20043;-74
2022/06/12 00:14:11;;;;;;;7.32;5.00;;;;;;;14.89;59.63;99021.44;5107633;28;20024;-73
2022/06/12 00:16:40;;;;;;;6.00;4.72;;;;;;;14.86;59.45;99032.28;5091178;28;20122;-74
2022/06/12 00:19:07;;;;;;;5.03;4.53;;;;;;;14.82;59.45;99023.00;5089250;28;20027;-75
2022/06/12 00:21:34;;;;;;;5.70;4.40;;;;;;;14.78;59.66;99028.34;5108791;28;20506;-73
2022/06/12 00:24:04;;;;;;;7.90;5.07;;;;;;;14.74;59.35;99019.03;5107010;28;20028;-74
2022/06/12 00:26:35;;;;;;;10.07;5.63;;;;;;;14.71;59.82;99020.44;5108079;28;20544;-74
2022/06/12 00:29:13;;;;;;;5.80;5.15;;;;;;;14.69;59.71;99019.16;5108672;28;20402;-73
2022/06/12 00:31:42;;;;;;;6.47;5.50;;;;;;;14.67;59.86;99026.88;5107785;28;20149;-73
2022/06/12 00:34:10;;;;;;;6.00;5.40;;;;;;;14.68;59.94;99023.00;5071091;28;20031;-73
2022/06/12 00:36:35;;;;;;;6.85;5.57;;;;;;;14.67;60.02;99015.84;5108226;28;20019;-73
2022/06/12 00:39:02;;;;;;;7.15;5.32;;;;;;;14.66;60.24;99008.69;5108281;28;20039;-73
2022/06/12 00:41:28;;;;;;;9.70;5.80;;;;;;;14.66;59.59;99011.44;5110080;28;20072;-74
2022/06/12 00:43:53;;;;;;;6.00;5.22;;;;;;;14.66;60.25;99006.75;5108078;28;20420;-74
2022/06/12 00:46:50;;;;;;;11.70;6.10;;;;;;;14.66;60.27;99014.22;5112326;28;20497;-74
2022/06/12 00:49:20;;;;;;;7.60;5.65;;;;;;;14.64;60.46;99016.47;5101225;27;20077;-73
2022/06/12 00:51:50;;;;;;;9.52;5.25;;;;;;;14.60;60.25;99016.28;5113120;27;20032;-73
2022/06/12 00:54:16;;;;;;;;;;;;;;;14.58;60.06;99016.56;5110142;28;20023;-74
2022/06/12 00:56:47;;;;;;;7.32;5.75;;;;;;;14.55;60.47;99019.13;5112300;28;19912;-73
2022/06/12 00:59:31;;;;;;;6.95;5.55;;;;;;;14.50;60.39;99014.53;5112289;28;20081;-73
2022/06/12 01:01:56;;;;;;;7.15;5.68;;;;;;;14.45;60.31;99011.91;5110684;28;20030;-73
2022/06/12 01:07:13;;;;;;;7.78;6.30;;;;;;;14.38;60.70;99005.97;5111570;28;20051;-73
2022/06/12 01:09:41;;;;;;;7.63;5.90;;;;;;;14.35;60.65;99010.16;5111458;27;20031;-72
2022/06/12 01:12:13;;;;;;;6.70;6.03;;;;;;;14.35;60.87;99003.84;5111438;28;20083;-72
2022/06/12 01:14:47;;;;;;;8.75;6.28;;;;;;;14.33;60.95;99006.88;5111938;28;20429;-73
2022/06/12 01:17:13;;;;;;;6.72;5.90;;;;;;;14.34;61.12;99007.72;5092771;28;20032;-73
2022/06/12 01:19:44;;;;;;;8.48;6.20;;;;;;;14.33;61.24;99012.41;5111686;28;20097;-73
2022/06/12 01:22:24;;;;;;;7.50;6.00;;;;;;;14.28;61.26;99002.31;5112013;28;20030;-73
2022/06/12 01:25:13;;;;;;;7.22;6.22;;;;;;;14.27;61.30;99005.34;5111138;28;20603;-73
2022/06/12 01:27:47;;;;;;;10.45;6.78;;;;;;;14.26;61.43;99001.78;5111514;28;20031;-73
2022/06/12 01:30:19;;;;;;;8.00;6.63;;;;;;;14.24;61.24;98995.75;5096145;28;20110;-72
2022/06/12 01:32:57;;;;;;;9.23;6.88;;;;;;;14.22;61.58;98997.22;5092615;28;20304;-72
2022/06/12 01:35:35;;;;;;;10.82;6.68;;;;;;;14.17;61.46;98995.34;5109697;28;20027;-73
2022/06/12 01:38:15;;;;;;;9.50;6.88;;;;;;;14.16;61.32;98995.66;5093155;28;20027;-72
2022/06/12 01:40:57;;;;;;;8.55;6.65;;;;;;;14.15;61.48;99003.13;5092725;28;20624;-72
2022/06/12 01:43:30;;;;;;;8.05;6.28;;;;;;;14.13;61.68;98997.91;5111388;27;20035;-72
2022/06/12 01:46:08;;;;;;;12.32;7.70;;;;;;;14.11;62.02;98997.41;5111347;28;20024;-73
2022/06/12 01:48:51;;;;;;;11.35;8.20;;;;;;;14.09;61.90;99004.34;5108607;28;20042;-74
2022/06/12 01:51:30;;;;;;;12.45;8.07;;;;;;;14.06;61.67;98996.69;5110091;28;20068;-74
2022/06/12 01:54:03;;;;;;;13.50;8.32;;;;;;;14.03;61.73;98995.34;5110555;28;20015;-74
2022/06/12 01:56:37;;;;;;;12.63;7.57;;;;;;;14.03;61.97;98991.78;5110927;27;20074;-74
2022/06/12 01:59:16;;;;;;;11.63;7.80;;;;;;;14.01;61.99;99002.31;5110162;28;20444;-73
2022/06/12 02:02:10;;;;;;;13.13;7.30;;;;;;;13.99;62.11;99008.13;5109931;28;20020;-73
2022/06/12 02:04:41;;;;;;;10.32;6.60;;;;;;;13.97;62.25;99000.16;5109688;28;20024;-74
2022/06/12 02:07:30;;;;;;;8.68;5.55;;;;;;;13.96;62.29;98997.69;5108414;28;20036;-73
2022/06/12 02:09:59;;;;;;;10.17;6.17;;;;;;;13.96;62.19;99004.03;5110570;28;20027;-73
2022/06/12 02:15:33;;;;;;;7.68;5.45;;;;;;;13.90;62.15;98993.41;5110008;28;20038;-73
2022/06/12 02:18:23;;;;;;;8.85;5.55;;;;;;;13.87;62.40;98992.09;5110454;28;20093;-74
2022/06/12 02:20:57;;;;;;;7.82;5.45;;;;;;;13.88;62.59;98998.41;5109223;28;21051;-74
2022/06/12 02:23:30;;;;;;;9.25;5.82;;;;;;;13.84;62.50;98992.69;5109181;28;20035;-73
2022/06/12 02:25:57;;;;;;;13.57;6.18;;;;;;;13.86;62.77;98987.69;5111319;28;20031;-74
2022/06/12 02:28:34;;;;;;;8.73;6.18;;;;;;;13.82;63.03;98983.91;5110457;28;20028;-73
2022/06/12 02:31:06;;;;;;;9.05;5.93;;;;;;;13.82;62.91;98986.66;5111097;28;20024;-73
2022/06/12 02:33:38;;;;;;;9.65;5.63;;;;;;;13.80;62.72;98989.75;5111185;28;20032;-73
2022/06/12 02:36:12;;;;;;;9.05;6.13;;;;;;;13.80;62.69;98992.50;5111055;28;20032;-73
2022/06/12 02:38:37;;;;;;;10.55;6.38;;;;;;;13.77;63.06;98995.84;5107046;28;20036;-74
2022/06/12 02:41:21;;;;;;;10.48;6.20;;;;;;;13.74;62.81;99001.16;5109554;28;20039;-74
2022/06/12 02:43:49;;;;;;;13.07;6.90;;;;;;;13.72;63.03;98997.88;5110610;28;20030;-73
2022/06/12 02:46:21;;;;;;;9.63;6.13;;;;;;;13.70;63.11;99000.94;5111081;28;20024;-73
2022/06/12 02:48:46;;;;;;;10.02;6.88;;;;;;;13.68;63.30;98998.47;5090852;28;20051;-73
2022/06/12 02:51:24;;;;;;;9.70;6.40;;;;;;;13.68;63.10;98995.72;5111658;28;20069;-73
2022/06/12 02:54:23;;;;;;;12.05;6.75;;;;;;;13.67;63.27;99005.09;5110970;28;20801;-73
2022/06/12 02:57:50;;;;;;;11.23;6.78;;;;;;;13.65;63.18;99007.34;5109702;28;20043;-73
2022/06/12 03:00:24;;;;;;;10.45;6.75;;;;;;;13.64;63.56;99005.75;5006285;28;20133;-74
2022/06/12 03:03:06;;;;;;;11.77;6.72;;;;;;;13.65;63.34;99012.06;5107453;28;20019;-72
2022/06/12 03:05:36;;;;;;;9.55;6.20;;;;;;;13.68;63.60;99014.22;5111994;27;20024;-73
2022/06/12 03:08:14;;;;;;;9.57;6.88;;;;;;;13.66;63.68;99016.44;5109737;28;20547;-73
2022/06/12 03:10:45;;;;;;;9.02;6.05;;;;;;;13.67;63.61;99018.09;5091123;28;20032;-73
2022/06/12 03:13:11;;;;;;;10.27;6.60;;;;;;;13.66;63.82;99011.75;5110147;28;20028;-73
2022/06/12 03:15:54;;;;;;;8.65;6.38;;;;;;;13.65;63.89;99001.84;5089863;28;20032;-73
2022/06/12 03:18:24;;;;;;;11.32;6.82;;;;;;;13.65;64.03;99012.88;5108541;28;20118;-73
2022/06/12 03:21:08;;;;;;;12.60;7.07;;;;;;;13.68;63.74;99014.22;5110550;28;20545;-73
2022/06/12 03:23:49;;;;;;;11.05;6.93;;;;;;;13.72;64.03;99012.50;5109747;28;20031;-73
2022/06/12 03:26:46;;;;;;;11.02;7.65;;;;;;;13.74;64.10;99007.50;5110168;28;20019;-73
2022/06/12 03:29:35;;;;;;;12.00;7.15;;;;;;;13.75;64.07;99014.63;5108914;28;20047;-73
2022/06/12 03:32:19;;;;;;;9.82;6.57;;;;;;;13.80;64.11;99013.72;5107798;28;20020;-74
2022/06/12 03:35:16;;;;;;;8.75;6.95;;;;;;;13.83;64.13;99015.88;5107124;28;20066;-74
2022/06/12 03:37:56;;;;;;;12.48;6.80;;;;;;;13.87;64.12;99014.13;5088206;28;20020;-73
2022/06/12 03:40:37;;;;;;;9.02;7.10;;;;;;;13.92;64.38;99021.47;5110201;28;20424;-73
2022/06/12 03:43:09;;;;;;;13.35;6.63;;;;;;;13.97;64.54;99015.88;5088657;28;20044;-73
2022/06/12 03:45:45;;;;;;;16.40;6.70;;;;;;;14.02;64.50;99013.03;5110274;28;20024;-73
2022/06/12 03:48:22;;;;;;;10.43;7.38;;;;;;;14.07;64.63;99009.34;5110031;28;20101;-73
2022/06/12 03:51:00;;;;;;;9.35;6.72;;;;;;;14.12;64.71;99012.00;5110331;28;20463;-73
2022/06/12 03:53:31;;;;;;;9.60;7.13;;;;;;;14.19;64.79;99011.63;5109753;28;20043;-73
2022/06/12 03:59:22;;;;;;;9.95;7.72;;;;;;;14.34;64.83;99008.53;5106787;28;20051;-73
2022/06/12 04:01:49;;;;;;;8.50;7.13;;;;;;;14.41;65.43;99003.41;5110276;28;20547;-73
2022/06/12 04:04:17;;;;;;;11.52;7.47;;;;;;;14.50;64.87;99005.44;5109402;28;20067;-74
2022/06/12 04:06:44;;;;;;;10.23;6.85;;;;;;;14.56;64.93;99009.72;5091822;28;20059;-73
2022/06/12 04:09:19;;;;;;;9.90;6.97;;;;;;;14.64;65.10;99013.69;5109604;28;20024;-73
2022/06/12 04:11:54;;;;;;;10.07;6.75;;;;;;;14.68;64.75;99012.75;5109784;28;20503;-74
2022/06/12 04:14:24;;;;;;;8.88;7.07;;;;;;;14.77;65.05;99010.13;5107107;28;20031;-74
2022/06/12 04:16:55;;;;;;;8.77;6.93;;;;;;;14.85;65.28;99009.41;5085914;28;20039;-73
2022/06/12 04:19:24;;;;;;;9.63;7.43;;;;;;;14.96;65.34;99017.44;5109544;28;20038;-73
2022/06/12 04:22:04;;;;;;;11.10;7.70;;;;;;;15.06;65.13;99005.34;5110035;28;20031;-73
2022/06/12 04:24:29;;;;;;;10.27;8.00;;;;;;;15.17;65.33;99009.47;5108940;28;20032;-73
2022/06/12 04:27:07;;;;;;;10.25;8.05;;;;;;;15.24;65.44;99009.84;5106321;28;20035;-73
2022/06/12 04:29:37;;;;;;;10.77;8.15;;;;;;;15.33;65.35;99012.66;5110252;28;20055;-73
2022/06/12 04:32:05;;;;;;;12.55;7.78;;;;;;;15.41;65.43;99014.69;5091974;28;20084;-73
2022/06/12 04:34:41;;;;;;;13.27;7.68;;;;;;;15.51;65.41;99004.50;5108821;28;20028;-73
2022/06/12 04:37:14;;;;;;;10.98;7.70;;;;;;;15.59;65.47;98998.22;5106140;28;20027;-73
2022/06/12 04:39:40;;;;;;;10.25;7.55;;;;;;;15.69;65.75;99008.19;5110128;28;20032;-73
2022/06/12 04:42:07;;;;;;;10.43;7.60;;;;;;;15.76;65.69;99003.81;5109717;28;20019;-73
2022/06/12 04:44:33;;;;;;;10.55;7.25;;;;;;;15.89;65.84;99006.84;5109097;28;20028;-73
2022/06/12 04:47:00;;;;;;;8.60;6.55;;;;;;;15.98;65.72;99004.94;5109292;28;20040;-73
2022/06/12 04:49:29;;;;;;;9.77;6.97;;;;;;;16.10;65.66;99006.31;5109803;28;20023;-73
2022/06/12 04:51:56;;;;;;;10.40;6.68;;;;;;;16.20;65.65;99008.75;5091369;28;20050;-74
2022/06/12 04:54:24;;;;;;;9.73;6.43;;;;;;;16.29;65.12;99014.34;5106822;28;20040;-74
2022/06/12 04:56:50;;;;;;;8.30;6.20;;;;;;;16.40;65.18;99014.88;5109484;28;20128;-75
2022/06/12 04:59:18;;;;;;;9.10;6.35;;;;;;;16.51;64.96;99017.00;5109139;28;20473;-73
2022/06/12 05:01:44;;;;;;;9.63;6.90;;;;;;;16.62;65.15;99025.81;5109348;28;20555;-73
2022/06/12 05:04:10;;;;;;;9.35;6.75;;;;;;;16.73;65.14;99026.31;5108299;28;20154;-73
2022/06/12 05:06:36;;;;;;;10.95;7.22;;;;;;;16.84;65.11;99018.53;5107224;28;20043;-73
2022/06/12 05:09:03;;;;;;;11.00;7.25;;;;;;;16.93;65.07;99024.06;5109661;28;20480;-73
2022/06/12 05:11:28;;;;;;;8.60;7.18;;;;;;;17.02;65.65;99019.38;5109477;28;20374;-73
2022/06/12 05:13:54;;;;;;;9.73;6.88;;;;;;;17.13;65.69;99028.19;5108706;28;20027;-73
2022/06/12 05:16:27;;;;;;;9.13;6.93;;;;;;;17.22;65.42;99029.00;5108642;28;20034;-73
2022/06/12 05:18:53;;;;;;;10.77;6.78;;;;;;;17.30;65.29;99021.00;5109221;28;20052;-73
2022/06/12 05:21:18;;;;;;;10.32;6.47;;;;;;;17.37;64.93;99035.16;5109328;28;20144;-73
2022/06/12 05:23:44;;;;;;;7.00;6.25;;;;;;;17.46;65.23;99027.66;5108991;28;20036;-73
2022/06/12 05:26:14;;;;;;;9.32;6.20;;;;;;;17.54;64.42;99035.16;5106289;28;20085;-73
2022/06/12 05:28:39;;;;;;;7.78;5.90;;;;;;;17.64;64.60;99033.19;5109473;28;20024;-73
2022/06/12 05:31:05;;;;;;;8.43;5.53;;;;;;;17.73;64.24;99030.38;5110594;28;20042;-73
2022/06/12 05:33:30;;;;;;;6.28;4.10;;;;;;;17.83;63.59;99033.63;5113699;28;20034;-73
2022/06/12 05:35:56;;;;;;;8.40;4.38;;;;;;;17.92;63.38;99025.28;5113654;28;20020;-73
2022/06/12 05:38:22;;;;;;;6.25;4.28;;;;;;;18.02;62.98;99028.84;5113541;28;20076;-73
2022/06/12 05:40:47;;;;;;;4.80;3.35;;;;;;;18.11;62.84;99037.97;5113648;28;20028;-73
2022/06/12 05:43:13;;;;;;;6.18;2.92;;;;;;;18.21;62.32;99045.94;5110368;28;20024;-74
2022/06/12 05:45:39;;;;;;;5.35;3.60;;;;;;;18.30;61.72;99037.56;5112956;28;20028;-73
2022/06/12 05:48:09;;;;;;;5.53;3.30;;;;;;;18.39;61.60;99032.78;5110535;28;20142;-74
2022/06/12 05:50:37;;;;;;;4.30;3.33;;;;;;;18.47;61.09;99031.09;5113696;28;20023;-74
2022/06/12 05:53:03;;;;;;;6.97;3.47;;;;;;;18.53;60.70;99029.75;5113371;28;20023;-74
2022/06/12 05:55:28;;;;;;;5.38;3.10;;;;;;;18.61;60.54;99030.84;5109460;28;20547;-74
2022/06/12 05:57:54;;;;;;;4.22;3.10;;;;;;;18.67;60.24;99031.47;5110278;28;20043;-74
2022/06/12 06:00:27;;;;;;;4.20;3.22;;;;;;;18.75;60.17;99034.19;5113407;27;20452;-73
2022/06/12 06:02:54;;;;;;;3.78;3.00;;;;;;;18.83;59.87;99023.38;5112707;27;20088;-72
2022/06/12 06:05:21;;;;;;;6.85;3.33;;;;;;;18.89;59.93;99033.13;5112416;28;20087;-74
2022/06/12 06:07:46;;;;;;;4.82;3.25;;;;;;;18.98;60.07;99030.31;5111580;28;20134;-72
2022/06/12 06:10:19;;;;;;;5.03;3.65;;;;;;;19.07;59.91;99019.13;5094012;28;20023;-73
2022/06/12 06:12:45;;;;;;;7.43;4.20;;;;;;;19.18;60.05;99028.69;5111769;28;20028;-73
2022/06/12 06:15:11;;;;;;;4.68;3.97;;;;;;;19.25;59.99;99034.50;5111376;28;20735;-74
2022/06/12 06:17:37;;;;;;;5.45;4.30;;;;;;;19.31;59.79;99038.72;5111380;28;20028;-74
2022/06/12 06:20:04;;;;;;;7.15;4.15;;;;;;;19.37;59.62;99033.75;5112185;28;20471;-73
2022/06/12 06:22:29;;;;;;;5.88;4.18;;;;;;;19.45;59.61;99032.03;5110946;28;20046;-73
2022/06/12 06:24:55;;;;;;;5.40;4.13;;;;;;;19.52;59.14;99032.28;5112165;28;20530;-73
2022/06/12 06:27:20;;;;;;;5.40;3.67;;;;;;;19.56;58.97;99038.00;5111894;28;20506;-73
2022/06/12 06:29:45;;;;;;;4.95;3.83;;;;;;;19.62;58.63;99040.22;5112235;28;20028;-74
2022/06/12 06:32:12;;;;;;;5.57;3.67;;;;;;;19.67;58.48;99030.84;5109832;27;20459;-73
2022/06/12 06:34:40;;;;;;;5.70;3.60;;;;;;;19.71;58.41;99037.34;5112398;28;20031;-74
2022/06/12 06:37:08;;;;;;;7.10;3.75;;;;;;;19.78;58.17;99033.97;5112889;28;20047;-75
2022/06/12 06:39:33;;;;;;;6.32;3.55;;;;;;;19.86;58.42;99040.63;5112902;28;21579;-74
2022/06/12 06:41:59;;;;;;;5.50;3.78;;;;;;;19.92;58.07;99036.50;5111791;28;20020;-74
2022/06/12 06:47:09;;;;;;;6.72;3.78;;;;;;;20.02;57.25;99035.25;5109904;28;20096;-73
2022/06/12 06:49:34;;;;;;;5.25;4.03;;;;;;;20.06;57.02;99036.19;5112510;28;20413;-73
2022/06/12 06:52:00;;;;;;;5.32;3.83;;;;;;;20.12;57.14;99033.97;5110502;28;20027;-74
2022/06/12 06:54:26;;;;;;;4.95;3.83;;;;;;;20.17;56.97;99034.56;5112018;28;20045;-74
2022/06/12 06:56:52;;;;;;;6.10;3.80;;;;;;;20.22;56.81;99031.53;5112471;28;20020;-74
2022/06/12 06:59:17;;;;;;;6.53;3.78;;;;;;;20.28;56.53;99028.53;5112490;28;20092;-74
2022/06/12 07:01:43;;;;;;;6.70;3.88;;;;;;;20.34;56.62;99024.34;5114454;27;20098;-73
2022/06/12 07:04:08;;;;;;;6.10;3.90;;;;;;;20.40;56.69;99022.97;5109547;27;20027;-74
2022/06/12 07:06:34;;;;;;;6.63;3.42;;;;;;;20.55;57.18;99029.00;5111939;28;20047;-74
2022/06/12 07:08:59;;;;;;;4.15;3.38;;;;;;;20.63;56.92;99026.09;5112751;28;20024;-74
2022/06/12 07:11:26;;;;;;;5.47;3.20;;;;;;;20.73;56.33;99027.56;5093831;28;20076;-74
2022/06/12 07:13:53;;;;;;;4.78;3.10;;;;;;;20.79;56.10;99028.16;5110768;28;20483;-73
2022/06/12 07:16:20;;;;;;;5.55;3.17;;;;;;;20.87;55.89;99026.44;5111802;28;20380;-73
2022/06/12 07:18:46;;;;;;;4.53;2.70;;;;;;;20.93;55.33;99027.81;5093406;28;20070;-73
2022/06/12 07:21:11;;;;;;;3.65;2.55;;;;;;;20.97;55.02;99023.97;5112209;28;20051;-73
2022/06/12 07:23:38;;;;;;;7.47;2.95;;;;;;;21.02;54.92;99024.88;5110284;28;20027;-73
2022/06/12 07:26:08;;;;;;;4.90;2.40;;;;;;;21.06;53.53;99021.03;5093770;28;20460;-73
2022/06/12 07:28:36;;;;;;;4.60;2.17;;;;;;;21.06;53.39;99018.22;5111559;28;20035;-73
2022/06/12 07:31:04;;;;;;;2.80;2.05;;;;;;;21.08;52.38;99020.69;5109629;28;20475;-73
2022/06/12 07:33:29;;;;;;;5.13;2.40;;;;;;;21.11;52.27;99012.41;5112824;27;20035;-73
2022/06/12 07:35:55;;;;;;;3.88;2.40;;;;;;;21.16;52.12;99019.72;5089509;28;20039;-73
2022/06/12 07:38:23;;;;;;;3.63;2.83;;;;;;;21.20;52.13;99017.03;5108118;28;20100;-74
2022/06/12 07:40:54;;;;;;;4.22;3.03;;;;;;;21.31;52.98;99014.53;5113488;27;20076;-73
2022/06/12 07:43:20;;;;;;;4.35;3.05;;;;;;;21.38;52.54;99021.16;5091094;28;20334;-73
2022/06/12 07:45:46;;;;;;;5.00;3.20;;;;;;;21.38;51.72;99018.38;5109876;28;20054;-74
2022/06/12 07:48:12;;;;;;;5.88;3.20;;;;;;;21.40;51.75;99010.44;5091698;28;20047;-74
2022/06/12 07:50:40;;;;;;;4.65;3.15;;;;;;;21.49;52.27;99017.84;5110135;28;20365;-74
2022/06/12 07:53:06;;;;;;;3.38;3.05;;;;;;;21.55;52.40;99010.84;5108833;28;20024;-73
2022/06/12 07:55:32;;;;;;;5.95;3.03;;;;;;;21.65;52.79;99010.34;5109401;28;20035;-73
2022/06/12 07:57:57;;;;;;;2.95;2.65;;;;;;;21.79;52.74;99018.28;5109851;28;20036;-73
2022/06/12 08:00:24;;;;;;;5.13;2.83;;;;;;;21.89;51.66;99018.94;5110711;27;20038;-73
2022/06/12 08:02:50;;;;;;;3.45;2.65;;;;;;;21.95;51.97;99017.50;5107639;28;20103;-74
2022/06/12 08:05:18;;;;;;;3.20;2.35;;;;;;;21.97;50.73;99018.75;5108752;28;20118;-73
2022/06/12 08:07:43;;;;;;;3.67;2.55;;;;;;;21.97;50.83;99018.75;5110596;27;20038;-73
2022/06/12 08:10:10;;;;;;;4.28;2.40;;;;;;;22.03;49.98;99021.28;5109277;28;20628;-73
2022/06/12 08:12:37;;;;;;;4.88;2.50;;;;;;;22.04;50.05;99020.13;5111142;27;20030;-73
2022/06/12 08:15:05;;;;;;;3.22;2.50;;;;;;;22.06;49.81;99021.38;5090875;28;20152;-73
2022/06/12 08:17:31;;;;;;;5.05;2.47;;;;;;;22.05;48.33;99016.16;5109622;28;20487;-73
2022/06/12 08:22:40;;;;;;;6.43;2.20;;;;;;;22.11;48.70;99017.50;5109664;28;20399;-73
2022/06/12 08:25:06;;;;;;;4.13;2.20;;;;;;;22.19;49.05;99016.53;5111626;28;20031;-72
2022/06/12 08:27:32;;;;;;;3.05;1.85;;;;;;;22.29;49.31;99018.75;5112000;28;20112;-73
2022/06/12 08:29:58;;;;;;;3.42;1.75;;;;;;;22.41;49.58;99017.84;5110636;28;20035;-73
2022/06/12 08:32:24;;;;;;;4.43;2.42;;;;;;;22.55;49.11;99013.78;5112638;28;20028;-73
2022/06/12 08:34:58;;;;;;;6.00;2.42;;;;;;;22.65;49.13;99015.22;5112793;28;20035;-72
2022/06/12 08:37:28;;;;;;;4.00;2.40;;;;;;;22.77;48.99;99017.88;5110045;28;20027;-72
2022/06/12 08:39:53;;;;;;;3.58;2.30;;;;;;;22.83;48.65;99016.44;5113236;28;20032;-72
2022/06/12 08:43:01;;;;;;;2.75;1.77;;;;;;;22.87;48.64;99008.94;5109569;28;20036;-74
2022/06/12 08:45:31;;;;;;;2.40;2.00;;;;;;;22.93;48.66;99005.84;5095737;28;20055;-72
2022/06/12 08:48:09;;;;;;;3.22;2.40;;;;;;;22.97;48.43;99009.53;5114459;28;20031;-72
2022/06/12 08:50:53;;;;;;;2.58;1.90;;;;;;;22.99;47.59;99010.78;5106306;28;20020;-73
2022/06/12 08:53:36;;;;;;;4.38;2.17;;;;;;;23.00;47.76;99008.81;5117879;28;20149;-72
2022/06/12 08:56:16;;;;;;;3.97;2.22;;;;;;;23.04;47.40;99009.66;5110448;28;20108;-73
2022/06/12 08:58:52;;;;;;;2.25;2.05;;;;;;;23.07;47.24;99000.56;5108784;28;20028;-73
2022/06/12 09:01:18;;;;;;;3.80;2.20;;;;;;;23.05;45.78;99003.72;5107630;28;20062;-72
2022/06/12 09:03:51;;;;;;;3.75;2.20;;;;;;;23.04;45.86;98999.31;5115692;28;20024;-73
2022/06/12 09:06:35;;;;;;;3.47;2.10;;;;;;;23.08;45.98;98996.56;5113294;27;20399;-73
2022/06/12 09:09:14;;;;;;;2.47;1.90;;;;;;;23.10;46.06;98999.81;5116021;27;20032;-73
2022/06/12 09:11:50;;;;;;;3.70;2.10;;;;;;;23.16;45.73;98989.94;5113592;27;20107;-74
2022/06/12 09:14:54;;;;;;;4.60;2.15;;;;;;;23.24;46.59;98990.94;5108000;27;20020;-74
2022/06/12 09:17:32;;;;;;;3.30;2.17;;;;;;;23.34;46.37;98992.34;5107773;28;20036;-74
2022/06/12 09:19:57;;;;;;;3.45;1.90;;;;;;;23.42;44.92;98987.69;5114119;27;20031;-74
2022/06/12 09:22:33;;;;;;;4.60;2.40;;;;;;;23.47;45.37;98987.38;5116736;27;20020;-75
2022/06/12 09:25:07;;;;;;;5.03;2.17;;;;;;;23.58;45.73;98979.19;5114883;27;20034;-74
2022/06/12 09:27:48;;;;;;;7.28;2.33;;;;;;;23.67;45.95;98967.75;5115801;27;20024;-73
2022/06/12 09:30:38;;;;;;;4.45;2.10;;;;;;;23.76;45.93;98971.09;5114267;27;20046;-73
2022/06/12 09:33:29;;;;;;;3.63;2.20;;;;;;;23.83;45.92;98962.03;5092285;28;20044;-73
2022/06/12 09:36:00;;;;;;;2.88;2.13;;;;;;;23.91;45.68;98961.78;5117006;27;20119;-73
2022/06/12 09:38:40;;;;;;;3.38;2.33;;;;;;;23.97;45.64;98967.88;5113066;27;20031;-73
2022/06/12 09:41:18;;;;;;;3.58;2.30;;;;;;;24.04;45.70;98965.22;5113319;27;20081;-73
2022/06/12 09:43:50;;;;;;;4.82;2.10;;;;;;;24.11;45.22;98964.53;5115723;27;20031;-73
2022/06/12 09:46:31;;;;;;;3.80;2.60;;;;;;;24.20;45.53;98958.69;5113884;27;20031;-74
2022/06/12 09:49:21;;;;;;;3.70;2.22;;;;;;;24.25;44.34;98958.34;5112575;28;20027;-75
2022/06/12 09:52:07;;;;;;;3.15;2.35;;;;;;;24.23;42.45;98950.31;5116430;27;20554;-75
2022/06/12 09:54:42;;;;;;;4.13;2.00;;;;;;;24.25;42.60;98954.72;5092707;28;20031;-72
2022/06/12 09:57:23;;;;;;;4.35;2.17;;;;;;;24.32;42.94;98944.44;5112443;27;20063;-71
2022/06/12 09:59:52;;;;;;;3.65;2.20;;;;;;;24.40;42.58;98936.97;5111628;27;20027;-71
2022/06/12 10:02:20;;;;;;;;;;;;;;;24.47;42.57;98947.47;5115547;27;20118;-74
2022/06/12 10:04:51;;;;;;;3.35;2.00;;;;;;;24.50;39.99;98946.69;5105954;28;19999;-72
2022/06/12 10:07:28;;;;;;;3.42;2.20;;;;;;;24.58;41.93;98942.81;5114475;27;20118;-73
2022/06/12 10:10:04;;;;;;;2.50;2.08;;;;;;;24.71;42.31;98939.75;5108280;27;20111;-72
2022/06/12 10:12:36;;;;;;;3.80;2.10;;;;;;;24.83;41.31;98945.16;5110498;28;20424;-70
2022/06/12 10:15:09;;;;;;;3.13;2.05;;;;;;;24.89;41.63;98942.81;5112766;27;20541;-75
2022/06/12 10:18:03;;;;;;;3.35;2.30;;;;;;;24.95;41.94;98930.91;5107147;28;20129;-74
2022/06/12 10:20:32;;;;;;;2.53;2.33;;;;;;;25.07;42.11;98926.22;5113866;27;20035;-76
2022/06/12 10:22:59;;;;;;;3.28;2.47;;;;;;;25.24;42.99;98925.63;5109625;28;20030;-77
2022/06/12 10:25:35;;;;;;;3.50;2.20;;;;;;;25.45;42.77;98926.25;5111873;27;20027;-78
2022/06/12 10:28:24;;;;;;;2.60;2.40;;;;;;;25.53;42.36;98920.31;5112232;27;20035;-76
2022/06/12 10:31:06;;;;;;;3.55;2.35;;;;;;;25.69;43.07;98919.25;5095920;28;20074;-73
2022/06/12 10:33:43;;;;;;;2.83;2.03;;;;;;;25.87;42.11;98916.59;5114787;27;20031;-75
2022/06/12 10:36:26;;;;;;;2.65;2.10;;;;;;;26.00;42.27;98917.09;5111848;28;20028;-74
2022/06/12 10:39:05;;;;;;;2.95;2.15;;;;;;;26.15;42.56;98913.25;5110319;27;20726;-75
2022/06/12 10:41:32;;;;;;;2.78;2.17;;;;;;;26.32;42.04;98916.53;5110301;28;20037;-74
2022/06/12 10:43:58;;;;;;;4.68;2.60;;;;;;;26.49;41.35;98911.44;5111198;27;20030;-76
2022/06/12 10:46:31;;;;;;;3.67;2.22;;;;;;;26.59;40.56;98908.66;5109812;28;20028;-77
2022/06/12 10:49:23;;;;;;;3.30;2.00;;;;;;;26.81;41.37;98913.59;5109478;28;20027;-74
2022/06/12 10:51:50;;;;;;;3.22;2.10;;;;;;;26.89;40.12;98898.38;5099854;27;20135;-75
2022/06/12 10:54:23;;;;;;;2.83;2.22;;;;;;;26.96;40.35;98904.03;5110360;27;20038;-75
2022/06/12 10:57:00;;;;;;;3.05;2.20;;;;;;;27.07;38.85;98906.88;5111406;28;20027;-74
2022/06/12 10:59:52;;;;;;;3.20;1.77;;;;;;;27.01;38.66;98905.66;5111223;28;20080;-76
2022/06/12 11:02:48;;;;;;;2.45;1.73;;;;;;;27.12;39.40;98895.25;5111334;28;20047;-76
2022/06/12 11:05:29;;;;;;;2.90;1.80;;;;;;;27.25;40.09;98897.69;5111291;28;20031;-75
2022/06/12 11:08:20;;;;;;;2.95;1.88;;;;;;;27.34;39.50;98896.09;5111084;28;20055;-75
2022/06/12 11:10:48;;;;;;;2.95;1.90;;;;;;;27.45;40.02;98886.88;5111025;28;20498;-76
2022/06/12 11:13:25;;;;;;;3.50;1.80;;;;;;;27.57;39.63;98897.75;5110567;28;20052;-75
2022/06/12 11:16:35;;;;;;;5.90;2.95;;;;;;;27.71;39.61;98884.88;5109665;28;20030;-74
2022/06/12 11:19:07;;;;;;;4.25;2.25;;;;;;;27.83;39.54;98878.84;5083886;28;20039;-74
2022/06/12 11:21:38;;;;;;;4.63;2.30;;;;;;;27.90;39.70;98870.41;5088777;28;20032;-73
2022/06/12 11:24:44;;;;;;;4.72;2.45;;;;;;;28.02;39.33;98869.16;5109973;28;20059;-74
2022/06/12 11:27:36;;;;;;;3.50;1.92;;;;;;;28.03;38.18;98869.97;5062891;28;20050;-73
2022/06/12 11:30:18;;;;;;;6.22;2.45;;;;;;;28.02;37.60;98863.53;5090644;28;20035;-74
2022/06/12 11:32:46;;;;;;;2.00;1.80;;;;;;;28.05;38.44;98859.91;5108016;28;20487;-75
2022/06/12 11:35:43;;;;;;;4.85;2.10;;;;;;;28.14;37.82;98859.50;5110089;28;20030;-74
2022/06/12 11:38:39;;;;;;;4.30;2.45;;;;;;;28.20;36.95;98857.06;5108649;28;20042;-73
2022/06/12 11:41:10;;;;;;;2.28;2.08;;;;;;;28.21;36.92;98853.03;5108834;28;20472;-73
2022/06/12 11:43:42;;;;;;;3.03;1.70;;;;;;;28.32;36.46;98851.00;5108766;28;20027;-73
2022/06/12 11:46:34;;;;;;;3.13;1.83;;;;;;;28.51;36.59;98849.72;5108944;28;20510;-74
2022/06/12 11:48:59;;;;;;;4.88;1.90;;;;;;;28.67;35.36;98854.91;5089031;28;20043;-73
2022/06/12 11:51:53;;;;;;;2.17;1.98;;;;;;;28.72;35.58;98847.22;5090432;28;20061;-73
2022/06/12 11:54:43;;;;;;;2.20;1.70;;;;;;;28.81;35.87;98854.06;5107340;28;20027;-73
2022/06/12 11:57:25;;;;;;;2.45;1.90;;;;;;;28.85;35.38;98839.13;5106199;28;20484;-72
2022/06/12 12:00:09;;;;;;;4.25;2.15;;;;;;;28.77;34.99;98835.53;5107596;28;20020;-73
2022/06/12 12:02:54;;;;;;;4.40;2.13;;;;;;;28.57;33.91;98832.38;5088698;28;20070;-74
2022/06/12 12:05:54;;;;;;;2.38;1.90;;;;;;;28.51;35.11;98832.00;5107189;28;20070;-73
2022/06/12 12:08:25;;;;;;;2.88;1.92;;;;;;;28.49;34.14;98832.41;5108887;28;20047;-74
2022/06/12 12:11:06;;;;;;;2.95;1.70;;;;;;;28.55;34.85;98829.16;5108645;28;20031;-74
2022/06/12 12:13:41;;;;;;;4.72;2.10;;;;;;;28.72;35.57;98830.28;5109543;28;20028;-73
2022/06/12 12:16:30;;;;;;;3.92;2.40;;;;;;;28.90;34.59;98818.94;5106707;28;20100;-73